sensor_id;sensor_type;location;lat;lon;timestamp;temperature;humidity
20866;DHT22;10593;48.398;10.698;2022-12-04T00:00:12;4.70;58.20
20866;DHT22;10593;48.398;10.698;2022-12-04T00:02:39;4.70;58.20
20866;DHT22;10593;48.398;10.698;2022-12-04T00:05:06;4.70;58.30
20866;DHT22;10593;48.398;10.698;2022-12-04T00:07:33;4.70;58.20
20866;DHT22;10593;48.398;10.698;2022-12-04T00:10:00;4.70;58.20
20866;DHT22;10593;48.398;10.698;2022-12-04T00:12:26;4.70;58.20
20866;DHT22;10593;48.398;10.698;2022-12-04T00:14:52;4.70;58.20
20866;DHT22;10593;48.398;10.698;2022-12-04T00:17:18;4.70;58.30
20866;DHT22;10593;48.398;10.698;2022-12-04T00:19:43;4.70;58.30
20866;DHT22;10593;48.398;10.698;2022-12-04T00:22:09;4.70;58.30
20866;DHT22;10593;48.398;10.698;2022-12-04T00:24:35;4.70;58.20
20866;DHT22;10593;48.398;10.698;2022-12-04T00:27:01;4.70;58.30
20866;DHT22;10593;48.398;10.698;2022-12-04T00:29:27;4.70;58.40
20866;DHT22;10593;48.398;10.698;2022-12-04T00:31:54;4.70;58.40
20866;DHT22;10593;48.398;10.698;2022-12-04T00:34:20;4.70;58.40
20866;DHT22;10593;48.398;10.698;2022-12-04T00:36:47;4.70;58.40
20866;DHT22;10593;48.398;10.698;2022-12-04T00:39:12;4.70;58.40
20866;DHT22;10593;48.398;10.698;2022-12-04T00:41:38;4.70;58.40
20866;DHT22;10593;48.398;10.698;2022-12-04T00:44:04;4.70;58.40
20866;DHT22;10593;48.398;10.698;2022-12-04T00:46:30;4.70;58.40
20866;DHT22;10593;48.398;10.698;2022-12-04T00:48:55;4.70;58.40
20866;DHT22;10593;48.398;10.698;2022-12-04T00:51:24;4.70;58.40
20866;DHT22;10593;48.398;10.698;2022-12-04T00:53:51;4.70;58.40
20866;DHT22;10593;48.398;10.698;2022-12-04T00:56:26;4.70;58.50
20866;DHT22;10593;48.398;10.698;2022-12-04T00:58:54;4.70;58.50
20866;DHT22;10593;48.398;10.698;2022-12-04T01:01:22;4.70;58.50
20866;DHT22;10593;48.398;10.698;2022-12-04T01:03:49;4.70;58.50
20866;DHT22;10593;48.398;10.698;2022-12-04T01:06:21;4.70;58.50
20866;DHT22;10593;48.398;10.698;2022-12-04T01:08:50;4.70;58.60
20866;DHT22;10593;48.398;10.698;2022-12-04T01:11:18;4.70;58.60
20866;DHT22;10593;48.398;10.698;2022-12-04T01:13:45;4.70;58.60
20866;DHT22;10593;48.398;10.698;2022-12-04T01:16:23;4.70;58.50
20866;DHT22;10593;48.398;10.698;2022-12-04T01:18:51;4.70;58.50
20866;DHT22;10593;48.398;10.698;2022-12-04T01:21:17;4.70;58.50
20866;DHT22;10593;48.398;10.698;2022-12-04T01:23:44;4.60;58.40
20866;DHT22;10593;48.398;10.698;2022-12-04T01:26:10;4.60;58.40
20866;DHT22;10593;48.398;10.698;2022-12-04T01:28:36;4.60;58.50
20866;DHT22;10593;48.398;10.698;2022-12-04T01:31:08;4.60;58.50
20866;DHT22;10593;48.398;10.698;2022-12-04T01:33:38;4.60;58.50
20866;DHT22;10593;48.398;10.698;2022-12-04T01:36:08;4.60;58.60
20866;DHT22;10593;48.398;10.698;2022-12-04T01:38:37;4.70;58.60
20866;DHT22;10593;48.398;10.698;2022-12-04T01:41:05;4.60;58.60
20866;DHT22;10593;48.398;10.698;2022-12-04T01:43:33;4.60;58.60
20866;DHT22;10593;48.398;10.698;2022-12-04T01:46:02;4.60;58.70
20866;DHT22;10593;48.398;10.698;2022-12-04T01:48:37;4.70;58.70
20866;DHT22;10593;48.398;10.698;2022-12-04T01:53:43;4.60;58.70
20866;DHT22;10593;48.398;10.698;2022-12-04T01:56:14;4.60;58.60
20866;DHT22;10593;48.398;10.698;2022-12-04T01:58:43;4.60;58.70
20866;DHT22;10593;48.398;10.698;2022-12-04T02:01:12;4.60;58.70
20866;DHT22;10593;48.398;10.698;2022-12-04T02:03:38;4.60;58.70
20866;DHT22;10593;48.398;10.698;2022-12-04T02:06:05;4.60;58.70
20866;DHT22;10593;48.398;10.698;2022-12-04T02:08:31;4.60;58.80
20866;DHT22;10593;48.398;10.698;2022-12-04T02:14:20;4.60;58.90
20866;DHT22;10593;48.398;10.698;2022-12-04T02:29:38;4.60;58.90
20866;DHT22;10593;48.398;10.698;2022-12-04T02:32:24;4.60;59.00
20866;DHT22;10593;48.398;10.698;2022-12-04T02:38:31;4.70;59.00
20866;DHT22;10593;48.398;10.698;2022-12-04T02:41:08;4.60;59.00
20866;DHT22;10593;48.398;10.698;2022-12-04T02:43:56;4.60;59.00
20866;DHT22;10593;48.398;10.698;2022-12-04T02:46:36;4.60;59.00
20866;DHT22;10593;48.398;10.698;2022-12-04T02:49:13;4.70;59.00
20866;DHT22;10593;48.398;10.698;2022-12-04T02:51:43;4.70;59.10
20866;DHT22;10593;48.398;10.698;2022-12-04T02:56:52;4.70;59.20
20866;DHT22;10593;48.398;10.698;2022-12-04T02:59:25;4.60;59.10
20866;DHT22;10593;48.398;10.698;2022-12-04T03:01:59;4.70;59.20
20866;DHT22;10593;48.398;10.698;2022-12-04T03:04:31;4.60;59.10
20866;DHT22;10593;48.398;10.698;2022-12-04T03:07:01;4.70;59.20
20866;DHT22;10593;48.398;10.698;2022-12-04T03:09:42;4.70;59.20
20866;DHT22;10593;48.398;10.698;2022-12-04T03:15:25;4.70;59.20
20866;DHT22;10593;48.398;10.698;2022-12-04T03:20:31;4.70;59.20
20866;DHT22;10593;48.398;10.698;2022-12-04T03:23:23;4.70;59.30
20866;DHT22;10593;48.398;10.698;2022-12-04T03:29:24;4.60;59.30
20866;DHT22;10593;48.398;10.698;2022-12-04T03:32:11;4.60;59.40
20866;DHT22;10593;48.398;10.698;2022-12-04T03:43:44;4.60;59.40
20866;DHT22;10593;48.398;10.698;2022-12-04T03:46:39;4.60;59.40
20866;DHT22;10593;48.398;10.698;2022-12-04T03:49:32;4.60;59.50
20866;DHT22;10593;48.398;10.698;2022-12-04T03:52:20;4.60;59.50
20866;DHT22;10593;48.398;10.698;2022-12-04T03:57:58;4.60;59.60
20866;DHT22;10593;48.398;10.698;2022-12-04T04:00:29;4.60;59.50
20866;DHT22;10593;48.398;10.698;2022-12-04T04:03:28;4.60;59.50
20866;DHT22;10593;48.398;10.698;2022-12-04T04:06:00;4.60;59.70
20866;DHT22;10593;48.398;10.698;2022-12-04T04:08:35;4.60;59.60
20866;DHT22;10593;48.398;10.698;2022-12-04T04:11:15;4.60;59.60
20866;DHT22;10593;48.398;10.698;2022-12-04T04:16:59;4.60;59.70
20866;DHT22;10593;48.398;10.698;2022-12-04T04:19:57;4.60;59.80
20866;DHT22;10593;48.398;10.698;2022-12-04T04:22:48;4.60;59.80
20866;DHT22;10593;48.398;10.698;2022-12-04T04:25:37;4.60;59.80
20866;DHT22;10593;48.398;10.698;2022-12-04T04:28:33;4.60;59.80
20866;DHT22;10593;48.398;10.698;2022-12-04T04:37:15;4.60;60.00
20866;DHT22;10593;48.398;10.698;2022-12-04T04:42:27;4.60;59.90
20866;DHT22;10593;48.398;10.698;2022-12-04T04:45:12;4.60;59.90
20866;DHT22;10593;48.398;10.698;2022-12-04T04:47:57;4.60;59.80
20866;DHT22;10593;48.398;10.698;2022-12-04T04:50:29;4.60;59.80
20866;DHT22;10593;48.398;10.698;2022-12-04T04:53:01;4.60;59.90
20866;DHT22;10593;48.398;10.698;2022-12-04T04:55:30;4.60;60.10
20866;DHT22;10593;48.398;10.698;2022-12-04T04:58:11;4.60;60.10
20866;DHT22;10593;48.398;10.698;2022-12-04T05:00:42;4.70;60.20
20866;DHT22;10593;48.398;10.698;2022-12-04T05:03:14;4.70;60.20
20866;DHT22;10593;48.398;10.698;2022-12-04T05:05:40;4.70;60.30
20866;DHT22;10593;48.398;10.698;2022-12-04T05:08:06;4.70;60.30
20866;DHT22;10593;48.398;10.698;2022-12-04T05:10:31;4.70;60.30
20866;DHT22;10593;48.398;10.698;2022-12-04T05:12:57;4.70;60.30
20866;DHT22;10593;48.398;10.698;2022-12-04T05:15:22;4.70;60.30
20866;DHT22;10593;48.398;10.698;2022-12-04T05:17:48;4.70;60.30
20866;DHT22;10593;48.398;10.698;2022-12-04T05:20:14;4.70;60.30
20866;DHT22;10593;48.398;10.698;2022-12-04T05:22:39;4.70;60.20
20866;DHT22;10593;48.398;10.698;2022-12-04T05:25:05;4.70;60.20
20866;DHT22;10593;48.398;10.698;2022-12-04T05:27:31;4.70;60.30
20866;DHT22;10593;48.398;10.698;2022-12-04T05:29:57;4.70;60.20
20866;DHT22;10593;48.398;10.698;2022-12-04T05:32:25;4.70;60.20
20866;DHT22;10593;48.398;10.698;2022-12-04T05:34:54;4.70;60.20
20866;DHT22;10593;48.398;10.698;2022-12-04T05:37:20;4.80;60.30
20866;DHT22;10593;48.398;10.698;2022-12-04T05:39:47;4.70;60.20
20866;DHT22;10593;48.398;10.698;2022-12-04T05:42:13;4.80;60.30
20866;DHT22;10593;48.398;10.698;2022-12-04T05:44:39;4.70;60.30
20866;DHT22;10593;48.398;10.698;2022-12-04T05:47:05;4.80;60.40
20866;DHT22;10593;48.398;10.698;2022-12-04T05:49:32;4.80;60.40
20866;DHT22;10593;48.398;10.698;2022-12-04T05:52:00;4.80;60.40
20866;DHT22;10593;48.398;10.698;2022-12-04T05:54:27;4.80;60.50
20866;DHT22;10593;48.398;10.698;2022-12-04T05:56:52;4.70;60.40
20866;DHT22;10593;48.398;10.698;2022-12-04T05:59:18;4.70;60.40
20866;DHT22;10593;48.398;10.698;2022-12-04T06:01:44;4.80;60.50
20866;DHT22;10593;48.398;10.698;2022-12-04T06:04:10;4.80;60.40
20866;DHT22;10593;48.398;10.698;2022-12-04T06:06:37;4.80;60.40
20866;DHT22;10593;48.398;10.698;2022-12-04T06:09:04;4.80;60.40
20866;DHT22;10593;48.398;10.698;2022-12-04T06:11:34;4.80;60.40
20866;DHT22;10593;48.398;10.698;2022-12-04T06:14:03;4.80;60.40
20866;DHT22;10593;48.398;10.698;2022-12-04T06:16:37;4.80;60.30
20866;DHT22;10593;48.398;10.698;2022-12-04T06:19:07;4.80;60.40
20866;DHT22;10593;48.398;10.698;2022-12-04T06:21:35;4.80;60.40
20866;DHT22;10593;48.398;10.698;2022-12-04T06:24:03;4.80;60.30
20866;DHT22;10593;48.398;10.698;2022-12-04T06:26:29;4.80;60.30
20866;DHT22;10593;48.398;10.698;2022-12-04T06:28:56;4.80;60.30
20866;DHT22;10593;48.398;10.698;2022-12-04T06:31:24;4.80;60.40
20866;DHT22;10593;48.398;10.698;2022-12-04T06:33:52;4.80;60.40
20866;DHT22;10593;48.398;10.698;2022-12-04T06:36:20;4.80;60.40
20866;DHT22;10593;48.398;10.698;2022-12-04T06:38:46;4.80;60.40
20866;DHT22;10593;48.398;10.698;2022-12-04T06:41:16;4.80;60.50
20866;DHT22;10593;48.398;10.698;2022-12-04T06:43:44;4.80;60.50
20866;DHT22;10593;48.398;10.698;2022-12-04T06:46:12;4.80;60.50
20866;DHT22;10593;48.398;10.698;2022-12-04T06:48:43;4.80;60.50
20866;DHT22;10593;48.398;10.698;2022-12-04T06:51:21;4.80;60.50
20866;DHT22;10593;48.398;10.698;2022-12-04T06:53:48;4.80;60.50
20866;DHT22;10593;48.398;10.698;2022-12-04T06:56:17;4.80;60.50
20866;DHT22;10593;48.398;10.698;2022-12-04T06:58:46;4.80;60.50
20866;DHT22;10593;48.398;10.698;2022-12-04T07:01:15;4.80;60.60
20866;DHT22;10593;48.398;10.698;2022-12-04T07:03:42;4.80;60.60
20866;DHT22;10593;48.398;10.698;2022-12-04T07:08:47;4.80;60.80
20866;DHT22;10593;48.398;10.698;2022-12-04T07:11:16;4.80;60.70
20866;DHT22;10593;48.398;10.698;2022-12-04T07:13:43;4.80;60.70
20866;DHT22;10593;48.398;10.698;2022-12-04T07:16:12;4.80;60.70
20866;DHT22;10593;48.398;10.698;2022-12-04T07:18:39;4.80;60.80
20866;DHT22;10593;48.398;10.698;2022-12-04T07:21:10;4.80;60.80
20866;DHT22;10593;48.398;10.698;2022-12-04T07:23:39;4.80;60.80
20866;DHT22;10593;48.398;10.698;2022-12-04T07:26:10;4.80;60.90
20866;DHT22;10593;48.398;10.698;2022-12-04T07:28:38;4.80;60.90
20866;DHT22;10593;48.398;10.698;2022-12-04T07:31:06;4.80;60.90
20866;DHT22;10593;48.398;10.698;2022-12-04T07:33:34;4.80;61.60
20866;DHT22;10593;48.398;10.698;2022-12-04T07:36:02;4.80;60.80
20866;DHT22;10593;48.398;10.698;2022-12-04T07:38:31;4.90;60.90
20866;DHT22;10593;48.398;10.698;2022-12-04T07:40:58;4.90;60.90
20866;DHT22;10593;48.398;10.698;2022-12-04T07:43:24;4.80;60.90
20866;DHT22;10593;48.398;10.698;2022-12-04T07:45:51;4.90;61.00
20866;DHT22;10593;48.398;10.698;2022-12-04T07:48:17;4.90;61.10
20866;DHT22;10593;48.398;10.698;2022-12-04T07:50:43;4.80;61.10
20866;DHT22;10593;48.398;10.698;2022-12-04T07:53:09;4.90;61.20
20866;DHT22;10593;48.398;10.698;2022-12-04T07:55:35;4.90;61.30
20866;DHT22;10593;48.398;10.698;2022-12-04T07:58:02;4.90;61.40
20866;DHT22;10593;48.398;10.698;2022-12-04T08:00:27;4.90;61.40
20866;DHT22;10593;48.398;10.698;2022-12-04T08:02:53;4.90;61.40
20866;DHT22;10593;48.398;10.698;2022-12-04T08:05:19;4.90;61.30
20866;DHT22;10593;48.398;10.698;2022-12-04T08:07:45;4.90;61.30
20866;DHT22;10593;48.398;10.698;2022-12-04T08:10:11;4.90;61.20
20866;DHT22;10593;48.398;10.698;2022-12-04T08:12:37;4.90;61.20
20866;DHT22;10593;48.398;10.698;2022-12-04T08:15:03;4.90;61.30
20866;DHT22;10593;48.398;10.698;2022-12-04T08:17:29;4.90;61.30
20866;DHT22;10593;48.398;10.698;2022-12-04T08:19:55;4.90;61.20
20866;DHT22;10593;48.398;10.698;2022-12-04T08:22:21;4.90;61.30
20866;DHT22;10593;48.398;10.698;2022-12-04T08:24:47;4.90;61.30
20866;DHT22;10593;48.398;10.698;2022-12-04T08:27:12;5.00;61.40
20866;DHT22;10593;48.398;10.698;2022-12-04T08:29:38;4.90;61.30
20866;DHT22;10593;48.398;10.698;2022-12-04T08:32:04;5.00;61.40
20866;DHT22;10593;48.398;10.698;2022-12-04T08:34:30;4.90;61.40
20866;DHT22;10593;48.398;10.698;2022-12-04T08:36:56;5.00;61.50
20866;DHT22;10593;48.398;10.698;2022-12-04T08:39:21;5.00;61.50
20866;DHT22;10593;48.398;10.698;2022-12-04T08:41:47;5.00;61.50
20866;DHT22;10593;48.398;10.698;2022-12-04T08:44:13;5.00;61.50
20866;DHT22;10593;48.398;10.698;2022-12-04T08:46:38;5.00;61.50
20866;DHT22;10593;48.398;10.698;2022-12-04T08:49:04;5.00;61.50
20866;DHT22;10593;48.398;10.698;2022-12-04T08:51:31;5.00;62.10
20866;DHT22;10593;48.398;10.698;2022-12-04T08:54:01;5.00;61.50
20866;DHT22;10593;48.398;10.698;2022-12-04T08:56:29;5.00;61.50
20866;DHT22;10593;48.398;10.698;2022-12-04T08:58:57;5.00;61.50
20866;DHT22;10593;48.398;10.698;2022-12-04T09:01:23;5.00;61.50
20866;DHT22;10593;48.398;10.698;2022-12-04T09:03:50;5.10;61.60
20866;DHT22;10593;48.398;10.698;2022-12-04T09:06:16;5.10;61.60
20866;DHT22;10593;48.398;10.698;2022-12-04T09:08:43;5.10;61.60
20866;DHT22;10593;48.398;10.698;2022-12-04T09:11:13;5.10;61.60
20866;DHT22;10593;48.398;10.698;2022-12-04T09:13:42;5.10;61.60
20866;DHT22;10593;48.398;10.698;2022-12-04T09:16:11;5.10;61.60
20866;DHT22;10593;48.398;10.698;2022-12-04T09:18:40;5.10;61.60
20866;DHT22;10593;48.398;10.698;2022-12-04T09:21:08;5.10;61.60
20866;DHT22;10593;48.398;10.698;2022-12-04T09:23:37;5.10;61.60
20866;DHT22;10593;48.398;10.698;2022-12-04T09:26:05;5.10;61.60
20866;DHT22;10593;48.398;10.698;2022-12-04T09:28:40;5.10;61.60
20866;DHT22;10593;48.398;10.698;2022-12-04T09:31:05;5.10;61.60
20866;DHT22;10593;48.398;10.698;2022-12-04T09:33:32;5.10;61.60
20866;DHT22;10593;48.398;10.698;2022-12-04T09:35:58;5.20;61.70
20866;DHT22;10593;48.398;10.698;2022-12-04T09:38:26;5.10;61.60
20866;DHT22;10593;48.398;10.698;2022-12-04T09:43:54;5.20;61.90
20866;DHT22;10593;48.398;10.698;2022-12-04T09:46:52;5.20;61.70
20866;DHT22;10593;48.398;10.698;2022-12-04T09:49:34;5.20;62.00
20866;DHT22;10593;48.398;10.698;2022-12-04T09:52:21;5.20;61.80
20866;DHT22;10593;48.398;10.698;2022-12-04T09:54:54;5.20;61.70
20866;DHT22;10593;48.398;10.698;2022-12-04T09:57:46;5.20;61.70
20866;DHT22;10593;48.398;10.698;2022-12-04T10:00:16;5.20;61.80
20866;DHT22;10593;48.398;10.698;2022-12-04T10:02:53;5.20;61.70
20866;DHT22;10593;48.398;10.698;2022-12-04T10:08:41;5.20;61.80
20866;DHT22;10593;48.398;10.698;2022-12-04T10:11:13;5.20;61.70
20866;DHT22;10593;48.398;10.698;2022-12-04T10:14:04;5.20;61.70
20866;DHT22;10593;48.398;10.698;2022-12-04T10:19:54;5.20;62.10
20866;DHT22;10593;48.398;10.698;2022-12-04T10:25:31;5.20;61.80
20866;DHT22;10593;48.398;10.698;2022-12-04T10:30:58;5.20;62.10
20866;DHT22;10593;48.398;10.698;2022-12-04T10:33:55;5.20;62.00
20866;DHT22;10593;48.398;10.698;2022-12-04T10:36:30;5.20;62.20
20866;DHT22;10593;48.398;10.698;2022-12-04T10:41:50;5.20;62.10
20866;DHT22;10593;48.398;10.698;2022-12-04T10:44:22;5.20;62.20
20866;DHT22;10593;48.398;10.698;2022-12-04T10:46:50;5.20;62.10
20866;DHT22;10593;48.398;10.698;2022-12-04T10:49:25;5.20;62.10
20866;DHT22;10593;48.398;10.698;2022-12-04T10:51:53;5.20;62.10
20866;DHT22;10593;48.398;10.698;2022-12-04T10:54:30;5.20;62.10
20866;DHT22;10593;48.398;10.698;2022-12-04T10:57:06;5.20;62.10
20866;DHT22;10593;48.398;10.698;2022-12-04T10:59:34;5.20;62.20
20866;DHT22;10593;48.398;10.698;2022-12-04T11:04:36;5.30;62.30
20866;DHT22;10593;48.398;10.698;2022-12-04T11:07:15;5.30;62.30
20866;DHT22;10593;48.398;10.698;2022-12-04T11:09:57;5.20;62.30
20866;DHT22;10593;48.398;10.698;2022-12-04T11:12:28;5.30;62.50
20866;DHT22;10593;48.398;10.698;2022-12-04T11:17:31;5.30;62.50
20866;DHT22;10593;48.398;10.698;2022-12-04T11:20:05;5.30;62.50
20866;DHT22;10593;48.398;10.698;2022-12-04T11:22:36;5.30;62.50
20866;DHT22;10593;48.398;10.698;2022-12-04T11:25:17;5.30;62.50
20866;DHT22;10593;48.398;10.698;2022-12-04T11:27:48;5.40;62.60
20866;DHT22;10593;48.398;10.698;2022-12-04T11:30:22;5.30;62.50
20866;DHT22;10593;48.398;10.698;2022-12-04T11:32:55;5.30;62.50
20866;DHT22;10593;48.398;10.698;2022-12-04T11:35:27;5.40;62.50
20866;DHT22;10593;48.398;10.698;2022-12-04T11:38:06;5.40;62.60
20866;DHT22;10593;48.398;10.698;2022-12-04T11:40:44;5.40;62.70
20866;DHT22;10593;48.398;10.698;2022-12-04T11:43:13;5.40;62.70
20866;DHT22;10593;48.398;10.698;2022-12-04T11:45:40;5.40;62.50
20866;DHT22;10593;48.398;10.698;2022-12-04T11:48:17;5.40;62.50
20866;DHT22;10593;48.398;10.698;2022-12-04T11:51:11;5.40;62.40
20866;DHT22;10593;48.398;10.698;2022-12-04T11:57:05;5.40;62.50
20866;DHT22;10593;48.398;10.698;2022-12-04T12:06:25;5.50;62.70
20866;DHT22;10593;48.398;10.698;2022-12-04T12:09:13;5.50;62.60
20866;DHT22;10593;48.398;10.698;2022-12-04T12:17:32;5.50;62.70
20866;DHT22;10593;48.398;10.698;2022-12-04T12:20:53;5.50;62.70
20866;DHT22;10593;48.398;10.698;2022-12-04T12:23:48;5.50;62.70
20866;DHT22;10593;48.398;10.698;2022-12-04T12:29:58;5.50;62.60
20866;DHT22;10593;48.398;10.698;2022-12-04T12:32:56;5.50;62.50
20866;DHT22;10593;48.398;10.698;2022-12-04T12:38:43;5.50;62.30
20866;DHT22;10593;48.398;10.698;2022-12-04T12:41:26;5.50;62.40
20866;DHT22;10593;48.398;10.698;2022-12-04T12:45:05;5.50;62.30
20866;DHT22;10593;48.398;10.698;2022-12-04T12:47:20;5.50;62.30
20866;DHT22;10593;48.398;10.698;2022-12-04T12:52:55;5.50;62.10
20866;DHT22;10593;48.398;10.698;2022-12-04T12:55:29;5.50;62.00
20866;DHT22;10593;48.398;10.698;2022-12-04T13:00:29;5.50;62.00
20866;DHT22;10593;48.398;10.698;2022-12-04T13:03:18;5.50;62.00
20866;DHT22;10593;48.398;10.698;2022-12-04T13:05:54;5.60;62.10
20866;DHT22;10593;48.398;10.698;2022-12-04T13:08:26;5.50;62.00
20866;DHT22;10593;48.398;10.698;2022-12-04T13:11:05;5.50;62.00
20866;DHT22;10593;48.398;10.698;2022-12-04T13:13:42;5.50;62.00
20866;DHT22;10593;48.398;10.698;2022-12-04T13:16:22;5.50;62.00
20866;DHT22;10593;48.398;10.698;2022-12-04T13:19:16;5.60;62.00
20866;DHT22;10593;48.398;10.698;2022-12-04T13:22:15;5.60;62.00
20866;DHT22;10593;48.398;10.698;2022-12-04T13:30:20;5.60;62.00
20866;DHT22;10593;48.398;10.698;2022-12-04T13:33:26;5.60;62.00
20866;DHT22;10593;48.398;10.698;2022-12-04T13:39:21;5.60;62.00
20866;DHT22;10593;48.398;10.698;2022-12-04T13:42:02;5.60;62.20
20866;DHT22;10593;48.398;10.698;2022-12-04T13:44:30;5.60;62.00
20866;DHT22;10593;48.398;10.698;2022-12-04T13:47:10;5.60;62.00
20866;DHT22;10593;48.398;10.698;2022-12-04T13:49:49;5.60;62.10
20866;DHT22;10593;48.398;10.698;2022-12-04T13:52:22;5.60;62.00
20866;DHT22;10593;48.398;10.698;2022-12-04T13:55:00;5.60;62.00
20866;DHT22;10593;48.398;10.698;2022-12-04T13:57:26;5.70;62.10
20866;DHT22;10593;48.398;10.698;2022-12-04T14:00:20;5.70;62.10
20866;DHT22;10593;48.398;10.698;2022-12-04T14:02:54;5.70;62.10
20866;DHT22;10593;48.398;10.698;2022-12-04T14:05:49;5.70;62.10
20866;DHT22;10593;48.398;10.698;2022-12-04T14:11:06;5.70;62.10
20866;DHT22;10593;48.398;10.698;2022-12-04T14:13:41;5.70;62.10
20866;DHT22;10593;48.398;10.698;2022-12-04T14:16:23;5.70;62.10
20866;DHT22;10593;48.398;10.698;2022-12-04T14:18:58;5.70;62.80
20866;DHT22;10593;48.398;10.698;2022-12-04T14:21:40;5.70;62.10
20866;DHT22;10593;48.398;10.698;2022-12-04T14:24:34;5.70;62.10
20866;DHT22;10593;48.398;10.698;2022-12-04T14:30:24;5.70;62.10
20866;DHT22;10593;48.398;10.698;2022-12-04T14:33:16;5.70;62.10
20866;DHT22;10593;48.398;10.698;2022-12-04T14:36:00;5.70;62.10
20866;DHT22;10593;48.398;10.698;2022-12-04T14:38:28;5.70;62.10
20866;DHT22;10593;48.398;10.698;2022-12-04T14:40:55;5.70;62.10
20866;DHT22;10593;48.398;10.698;2022-12-04T14:43:24;5.70;62.10
20866;DHT22;10593;48.398;10.698;2022-12-04T14:46:12;5.70;62.10
20866;DHT22;10593;48.398;10.698;2022-12-04T14:52:17;5.80;62.20
20866;DHT22;10593;48.398;10.698;2022-12-04T14:54:58;5.80;62.20
20866;DHT22;10593;48.398;10.698;2022-12-04T14:57:52;5.70;62.10
20866;DHT22;10593;48.398;10.698;2022-12-04T15:00:50;5.80;62.20
20866;DHT22;10593;48.398;10.698;2022-12-04T15:03:17;5.80;62.20
20866;DHT22;10593;48.398;10.698;2022-12-04T15:05:44;5.80;62.20
20866;DHT22;10593;48.398;10.698;2022-12-04T15:08:12;5.80;62.20
20866;DHT22;10593;48.398;10.698;2022-12-04T15:10:39;5.80;62.20
20866;DHT22;10593;48.398;10.698;2022-12-04T15:13:25;5.80;62.20
20866;DHT22;10593;48.398;10.698;2022-12-04T15:15:52;5.80;62.20
20866;DHT22;10593;48.398;10.698;2022-12-04T15:18:18;5.80;62.20
20866;DHT22;10593;48.398;10.698;2022-12-04T15:23:16;5.80;62.30
20866;DHT22;10593;48.398;10.698;2022-12-04T15:25:51;5.80;62.50
20866;DHT22;10593;48.398;10.698;2022-12-04T15:28:22;5.80;62.50
20866;DHT22;10593;48.398;10.698;2022-12-04T15:30:51;5.80;62.40
20866;DHT22;10593;48.398;10.698;2022-12-04T15:33:25;5.80;62.40
20866;DHT22;10593;48.398;10.698;2022-12-04T15:35:59;5.80;62.40
20866;DHT22;10593;48.398;10.698;2022-12-04T15:38:28;5.80;62.30
20866;DHT22;10593;48.398;10.698;2022-12-04T15:40:56;5.80;62.20
20866;DHT22;10593;48.398;10.698;2022-12-04T15:43:38;5.80;62.20
20866;DHT22;10593;48.398;10.698;2022-12-04T15:46:13;5.90;62.30
20866;DHT22;10593;48.398;10.698;2022-12-04T15:48:45;5.80;62.30
20866;DHT22;10593;48.398;10.698;2022-12-04T15:51:11;5.80;62.20
20866;DHT22;10593;48.398;10.698;2022-12-04T15:53:43;5.80;62.20
20866;DHT22;10593;48.398;10.698;2022-12-04T15:56:16;5.80;62.20
20866;DHT22;10593;48.398;10.698;2022-12-04T15:58:57;5.80;62.20
20866;DHT22;10593;48.398;10.698;2022-12-04T16:01:25;5.80;62.20
20866;DHT22;10593;48.398;10.698;2022-12-04T16:03:53;5.80;62.20
20866;DHT22;10593;48.398;10.698;2022-12-04T16:09:48;5.80;62.20
20866;DHT22;10593;48.398;10.698;2022-12-04T16:12:15;5.80;62.20
20866;DHT22;10593;48.398;10.698;2022-12-04T16:14:42;5.90;62.30
20866;DHT22;10593;48.398;10.698;2022-12-04T16:17:09;5.80;62.30
20866;DHT22;10593;48.398;10.698;2022-12-04T16:19:38;5.90;62.30
20866;DHT22;10593;48.398;10.698;2022-12-04T16:22:16;5.80;62.20
20866;DHT22;10593;48.398;10.698;2022-12-04T16:24:45;5.80;62.20
20866;DHT22;10593;48.398;10.698;2022-12-04T16:27:13;5.90;62.30
20866;DHT22;10593;48.398;10.698;2022-12-04T16:29:42;5.80;62.20
20866;DHT22;10593;48.398;10.698;2022-12-04T16:32:16;5.80;62.20
20866;DHT22;10593;48.398;10.698;2022-12-04T16:34:44;5.80;62.20
20866;DHT22;10593;48.398;10.698;2022-12-04T16:37:18;5.80;62.20
20866;DHT22;10593;48.398;10.698;2022-12-04T16:39:45;5.80;62.20
20866;DHT22;10593;48.398;10.698;2022-12-04T16:42:20;5.80;62.20
20866;DHT22;10593;48.398;10.698;2022-12-04T16:44:48;5.80;62.30
20866;DHT22;10593;48.398;10.698;2022-12-04T16:47:15;5.80;62.20
20866;DHT22;10593;48.398;10.698;2022-12-04T16:49:42;5.80;62.20
20866;DHT22;10593;48.398;10.698;2022-12-04T16:52:10;5.80;62.20
20866;DHT22;10593;48.398;10.698;2022-12-04T16:54:37;5.80;62.20
20866;DHT22;10593;48.398;10.698;2022-12-04T16:57:04;5.80;62.20
20866;DHT22;10593;48.398;10.698;2022-12-04T16:59:31;5.80;62.20
20866;DHT22;10593;48.398;10.698;2022-12-04T17:01:56;5.80;62.20
20866;DHT22;10593;48.398;10.698;2022-12-04T17:04:22;5.80;62.20
20866;DHT22;10593;48.398;10.698;2022-12-04T17:06:48;5.80;62.20
20866;DHT22;10593;48.398;10.698;2022-12-04T17:09:14;5.80;62.20
20866;DHT22;10593;48.398;10.698;2022-12-04T17:11:40;5.80;62.20
20866;DHT22;10593;48.398;10.698;2022-12-04T17:14:07;5.80;62.20
20866;DHT22;10593;48.398;10.698;2022-12-04T17:16:35;5.80;62.90
20866;DHT22;10593;48.398;10.698;2022-12-04T17:19:03;5.80;62.20
20866;DHT22;10593;48.398;10.698;2022-12-04T17:21:29;5.80;62.20
20866;DHT22;10593;48.398;10.698;2022-12-04T17:23:55;5.80;62.20
20866;DHT22;10593;48.398;10.698;2022-12-04T17:26:21;5.80;62.20
20866;DHT22;10593;48.398;10.698;2022-12-04T17:28:50;5.80;62.30
20866;DHT22;10593;48.398;10.698;2022-12-04T17:31:21;5.80;62.30
20866;DHT22;10593;48.398;10.698;2022-12-04T17:33:48;5.80;62.30
20866;DHT22;10593;48.398;10.698;2022-12-04T17:36:20;5.80;62.30
20866;DHT22;10593;48.398;10.698;2022-12-04T17:38:47;5.80;62.30
20866;DHT22;10593;48.398;10.698;2022-12-04T17:41:19;5.80;62.30
20866;DHT22;10593;48.398;10.698;2022-12-04T17:43:44;5.80;62.30
20866;DHT22;10593;48.398;10.698;2022-12-04T17:46:12;5.80;62.30
20866;DHT22;10593;48.398;10.698;2022-12-04T17:48:40;5.80;62.40
20866;DHT22;10593;48.398;10.698;2022-12-04T17:51:14;5.80;62.30
20866;DHT22;10593;48.398;10.698;2022-12-04T17:53:42;5.80;62.50
20866;DHT22;10593;48.398;10.698;2022-12-04T17:56:11;5.80;62.40
20866;DHT22;10593;48.398;10.698;2022-12-04T17:58:40;5.80;62.50
20866;DHT22;10593;48.398;10.698;2022-12-04T18:01:11;5.80;62.50
20866;DHT22;10593;48.398;10.698;2022-12-04T18:03:39;5.80;62.50
20866;DHT22;10593;48.398;10.698;2022-12-04T18:06:23;5.80;62.50
20866;DHT22;10593;48.398;10.698;2022-12-04T18:08:55;5.80;62.70
20866;DHT22;10593;48.398;10.698;2022-12-04T18:11:23;5.80;62.60
20866;DHT22;10593;48.398;10.698;2022-12-04T18:13:59;5.80;62.60
20866;DHT22;10593;48.398;10.698;2022-12-04T18:16:28;5.80;62.70